sensor_id;sensor_type;location;lat;lon;timestamp;pressure;altitude;pressure_sealevel;temperature;humidity
39555;BME280;25231;48.746;9.234;2023-03-14T00:00:18;95185.31;;;8.77;100.00
39555;BME280;25231;48.746;9.234;2023-03-14T00:02:43;95145.84;;;8.68;100.00
39555;BME280;25231;48.746;9.234;2023-03-14T00:05:16;95126.44;;;8.59;100.00
39555;BME280;25231;48.746;9.234;2023-03-14T00:07:41;95136.09;;;8.59;100.00
39555;BME280;25231;48.746;9.234;2023-03-14T00:10:11;95130.16;;;8.63;100.00
39555;BME280;25231;48.746;9.234;2023-03-14T00:12:37;95143.94;;;8.59;100.00
39555;BME280;25231;48.746;9.234;2023-03-14T00:15:04;95139.25;;;8.61;100.00
39555;BME280;25231;48.746;9.234;2023-03-14T00:17:32;95123.84;;;8.59;100.00
39555;BME280;25231;48.746;9.234;2023-03-14T00:19:58;95121.22;;;8.59;100.00
39555;BME280;25231;48.746;9.234;2023-03-14T00:22:34;95134.84;;;8.66;100.00
39555;BME280;25231;48.746;9.234;2023-03-14T00:25:00;95131.47;;;8.71;100.00
39555;BME280;25231;48.746;9.234;2023-03-14T00:27:25;95105.34;;;8.71;100.00
39555;BME280;25231;48.746;9.234;2023-03-14T00:29:50;95112.41;;;8.70;100.00
39555;BME280;25231;48.746;9.234;2023-03-14T00:32:16;95102.22;;;8.69;100.00
39555;BME280;25231;48.746;9.234;2023-03-14T00:34:41;95109.53;;;8.72;100.00
39555;BME280;25231;48.746;9.234;2023-03-14T00:37:07;95109.28;;;8.73;100.00
39555;BME280;25231;48.746;9.234;2023-03-14T00:39:32;95119.22;;;8.76;100.00
39555;BME280;25231;48.746;9.234;2023-03-14T00:41:58;95122.13;;;8.85;100.00
39555;BME280;25231;48.746;9.234;2023-03-14T00:44:23;95127.84;;;8.82;100.00
39555;BME280;25231;48.746;9.234;2023-03-14T00:46:48;95118.50;;;8.91;100.00
39555;BME280;25231;48.746;9.234;2023-03-14T00:49:14;95120.03;;;8.87;100.00
39555;BME280;25231;48.746;9.234;2023-03-14T00:51:39;95113.28;;;8.91;100.00
39555;BME280;25231;48.746;9.234;2023-03-14T00:54:05;95114.53;;;8.84;100.00
39555;BME280;25231;48.746;9.234;2023-03-14T00:56:30;95121.84;;;8.87;100.00
39555;BME280;25231;48.746;9.234;2023-03-14T00:58:56;95125.25;;;8.87;100.00
39555;BME280;25231;48.746;9.234;2023-03-14T01:01:22;95127.63;;;8.89;100.00
39555;BME280;25231;48.746;9.234;2023-03-14T01:03:51;95128.94;;;8.91;100.00
39555;BME280;25231;48.746;9.234;2023-03-14T01:06:20;95145.66;;;8.85;100.00
39555;BME280;25231;48.746;9.234;2023-03-14T01:08:46;95136.50;;;8.93;100.00
39555;BME280;25231;48.746;9.234;2023-03-14T01:11:15;95149.28;;;8.84;100.00
39555;BME280;25231;48.746;9.234;2023-03-14T01:13:42;95137.81;;;8.90;100.00
39555;BME280;25231;48.746;9.234;2023-03-14T01:16:09;95131.56;;;8.91;100.00
39555;BME280;25231;48.746;9.234;2023-03-14T01:18:36;95129.97;;;8.90;100.00
39555;BME280;25231;48.746;9.234;2023-03-14T01:21:03;95123.69;;;8.86;100.00
39555;BME280;25231;48.746;9.234;2023-03-14T01:23:29;95125.53;;;8.91;100.00
39555;BME280;25231;48.746;9.234;2023-03-14T01:25:55;95119.53;;;8.90;100.00
39555;BME280;25231;48.746;9.234;2023-03-14T01:28:20;95101.25;;;8.90;100.00
39555;BME280;25231;48.746;9.234;2023-03-14T01:30:46;95095.50;;;8.93;100.00
39555;BME280;25231;48.746;9.234;2023-03-14T01:33:11;95085.28;;;8.92;100.00
39555;BME280;25231;48.746;9.234;2023-03-14T01:35:38;95099.41;;;8.91;100.00
39555;BME280;25231;48.746;9.234;2023-03-14T01:38:03;95082.97;;;8.90;100.00
39555;BME280;25231;48.746;9.234;2023-03-14T01:40:29;95084.78;;;8.95;100.00
39555;BME280;25231;48.746;9.234;2023-03-14T01:43:12;95075.59;;;8.82;100.00
39555;BME280;25231;48.746;9.234;2023-03-14T01:48:41;95056.03;;;8.85;100.00
39555;BME280;25231;48.746;9.234;2023-03-14T01:51:12;95048.97;;;8.80;100.00
39555;BME280;25231;48.746;9.234;2023-03-14T01:53:40;95053.13;;;8.81;100.00
39555;BME280;25231;48.746;9.234;2023-03-14T01:56:08;95051.84;;;8.79;100.00
39555;BME280;25231;48.746;9.234;2023-03-14T01:58:37;95044.00;;;8.84;100.00
39555;BME280;25231;48.746;9.234;2023-03-14T02:01:03;95040.59;;;8.78;100.00
39555;BME280;25231;48.746;9.234;2023-03-14T02:03:30;95045.81;;;8.78;100.00
39555;BME280;25231;48.746;9.234;2023-03-14T02:06:04;95031.97;;;8.72;100.00
39555;BME280;25231;48.746;9.234;2023-03-14T02:08:33;95033.78;;;8.72;100.00
39555;BME280;25231;48.746;9.234;2023-03-14T02:10:58;95035.63;;;8.71;100.00
39555;BME280;25231;48.746;9.234;2023-03-14T02:13:24;95043.19;;;8.73;100.00
39555;BME280;25231;48.746;9.234;2023-03-14T02:15:49;95037.44;;;8.66;100.00
39555;BME280;25231;48.746;9.234;2023-03-14T02:18:16;95036.38;;;8.62;100.00
39555;BME280;25231;48.746;9.234;2023-03-14T02:20:49;95033.47;;;8.58;100.00
39555;BME280;25231;48.746;9.234;2023-03-14T02:26:01;95032.72;;;8.58;100.00
39555;BME280;25231;48.746;9.234;2023-03-14T02:28:29;95025.41;;;8.60;100.00
39555;BME280;25231;48.746;9.234;2023-03-14T02:30:55;95016.28;;;8.57;100.00
39555;BME280;25231;48.746;9.234;2023-03-14T02:33:21;95008.44;;;8.62;100.00
39555;BME280;25231;48.746;9.234;2023-03-14T02:35:52;95006.88;;;8.61;100.00
39555;BME280;25231;48.746;9.234;2023-03-14T02:38:26;94998.00;;;8.57;100.00
39555;BME280;25231;48.746;9.234;2023-03-14T02:40:54;95004.50;;;8.60;100.00
39555;BME280;25231;48.746;9.234;2023-03-14T02:43:19;95007.91;;;8.60;100.00
39555;BME280;25231;48.746;9.234;2023-03-14T02:45:46;95002.19;;;8.63;100.00
39555;BME280;25231;48.746;9.234;2023-03-14T02:48:21;94988.59;;;8.61;100.00
39555;BME280;25231;48.746;9.234;2023-03-14T02:50:49;94986.25;;;8.65;100.00
39555;BME280;25231;48.746;9.234;2023-03-14T02:53:18;94982.06;;;8.64;100.00
39555;BME280;25231;48.746;9.234;2023-03-14T02:55:46;94971.09;;;8.62;100.00
39555;BME280;25231;48.746;9.234;2023-03-14T02:58:11;94969.75;;;8.54;100.00
39555;BME280;25231;48.746;9.234;2023-03-14T03:00:37;94973.16;;;8.60;100.00
39555;BME280;25231;48.746;9.234;2023-03-14T03:03:02;94963.50;;;8.60;100.00
39555;BME280;25231;48.746;9.234;2023-03-14T03:05:28;94959.34;;;8.64;100.00
39555;BME280;25231;48.746;9.234;2023-03-14T03:07:53;94950.44;;;8.55;100.00
39555;BME280;25231;48.746;9.234;2023-03-14T03:10:19;94958.28;;;8.50;100.00
39555;BME280;25231;48.746;9.234;2023-03-14T03:12:44;94959.06;;;8.46;100.00
39555;BME280;25231;48.746;9.234;2023-03-14T03:15:10;94949.41;;;8.46;100.00
39555;BME280;25231;48.746;9.234;2023-03-14T03:17:35;94937.88;;;8.47;100.00
39555;BME280;25231;48.746;9.234;2023-03-14T03:20:00;94927.44;;;8.47;100.00
39555;BME280;25231;48.746;9.234;2023-03-14T03:22:26;94915.97;;;8.38;100.00
39555;BME280;25231;48.746;9.234;2023-03-14T03:24:51;94922.22;;;8.42;100.00
39555;BME280;25231;48.746;9.234;2023-03-14T03:27:17;94918.06;;;8.46;100.00
39555;BME280;25231;48.746;9.234;2023-03-14T03:29:42;94917.28;;;8.41;100.00
39555;BME280;25231;48.746;9.234;2023-03-14T03:32:07;94924.31;;;8.35;100.00
39555;BME280;25231;48.746;9.234;2023-03-14T03:34:33;94915.72;;;8.40;100.00
39555;BME280;25231;48.746;9.234;2023-03-14T03:36:58;94903.16;;;8.37;100.00
39555;BME280;25231;48.746;9.234;2023-03-14T03:39:24;94901.88;;;8.39;100.00
39555;BME280;25231;48.746;9.234;2023-03-14T03:41:49;94894.81;;;8.34;100.00
39555;BME280;25231;48.746;9.234;2023-03-14T03:44:14;94897.69;;;8.33;100.00
39555;BME280;25231;48.746;9.234;2023-03-14T03:46:40;94896.34;;;8.30;100.00
39555;BME280;25231;48.746;9.234;2023-03-14T03:49:05;94900.81;;;8.30;100.00
39555;BME280;25231;48.746;9.234;2023-03-14T03:51:31;94903.16;;;8.31;100.00
39555;BME280;25231;48.746;9.234;2023-03-14T03:53:56;94892.72;;;8.31;100.00
39555;BME280;25231;48.746;9.234;2023-03-14T03:56:22;94886.16;;;8.29;100.00
39555;BME280;25231;48.746;9.234;2023-03-14T03:58:47;94896.31;;;8.25;100.00
39555;BME280;25231;48.746;9.234;2023-03-14T04:01:13;94900.00;;;8.29;100.00
39555;BME280;25231;48.746;9.234;2023-03-14T04:03:38;94891.63;;;8.27;100.00
39555;BME280;25231;48.746;9.234;2023-03-14T04:06:11;94879.88;;;8.25;100.00
39555;BME280;25231;48.746;9.234;2023-03-14T04:08:38;94890.31;;;8.20;100.00
39555;BME280;25231;48.746;9.234;2023-03-14T04:11:04;94887.19;;;8.13;100.00
39555;BME280;25231;48.746;9.234;2023-03-14T04:13:29;94888.22;;;8.12;100.00
39555;BME280;25231;48.746;9.234;2023-03-14T04:15:55;94880.91;;;8.14;100.00
39555;BME280;25231;48.746;9.234;2023-03-14T04:18:22;94885.84;;;8.05;100.00
39555;BME280;25231;48.746;9.234;2023-03-14T04:20:56;94883.25;;;8.10;100.00
39555;BME280;25231;48.746;9.234;2023-03-14T04:23:23;94885.06;;;8.10;100.00
39555;BME280;25231;48.746;9.234;2023-03-14T04:25:50;94884.56;;;8.08;100.00
39555;BME280;25231;48.746;9.234;2023-03-14T04:28:15;94881.19;;;8.12;100.00
39555;BME280;25231;48.746;9.234;2023-03-14T04:30:41;94882.19;;;8.06;100.00
39555;BME280;25231;48.746;9.234;2023-03-14T04:33:06;94882.72;;;8.08;100.00
39555;BME280;25231;48.746;9.234;2023-03-14T04:35:33;94884.81;;;8.11;100.00
39555;BME280;25231;48.746;9.234;2023-03-14T04:37:58;94885.59;;;8.07;100.00
39555;BME280;25231;48.746;9.234;2023-03-14T04:40:25;94885.06;;;8.10;100.00
39555;BME280;25231;48.746;9.234;2023-03-14T04:42:50;94871.47;;;8.03;100.00
39555;BME280;25231;48.746;9.234;2023-03-14T04:45:16;94872.03;;;8.10;100.00
39555;BME280;25231;48.746;9.234;2023-03-14T04:47:41;94867.34;;;8.07;100.00
39555;BME280;25231;48.746;9.234;2023-03-14T04:50:08;94854.00;;;8.08;100.00
39555;BME280;25231;48.746;9.234;2023-03-14T04:52:33;94850.59;;;7.98;100.00
39555;BME280;25231;48.746;9.234;2023-03-14T04:54:59;94855.06;;;8.07;100.00
39555;BME280;25231;48.746;9.234;2023-03-14T04:57:24;94859.75;;;8.10;100.00
39555;BME280;25231;48.746;9.234;2023-03-14T04:59:50;94856.88;;;7.97;100.00
39555;BME280;25231;48.746;9.234;2023-03-14T05:02:15;94858.97;;;8.00;100.00
39555;BME280;25231;48.746;9.234;2023-03-14T05:04:40;94851.91;;;7.95;100.00
39555;BME280;25231;48.746;9.234;2023-03-14T05:07:06;94850.59;;;7.92;100.00
39555;BME280;25231;48.746;9.234;2023-03-14T05:09:31;94845.66;;;7.96;100.00
39555;BME280;25231;48.746;9.234;2023-03-14T05:11:56;94842.75;;;7.87;100.00
39555;BME280;25231;48.746;9.234;2023-03-14T05:14:22;94846.41;;;7.91;100.00
39555;BME280;25231;48.746;9.234;2023-03-14T05:16:47;94843.56;;;7.93;100.00
39555;BME280;25231;48.746;9.234;2023-03-14T05:19:12;94843.81;;;7.91;100.00
39555;BME280;25231;48.746;9.234;2023-03-14T05:21:38;94841.22;;;7.97;100.00
39555;BME280;25231;48.746;9.234;2023-03-14T05:24:03;94838.34;;;7.98;100.00
39555;BME280;25231;48.746;9.234;2023-03-14T05:26:29;94836.78;;;7.97;100.00
39555;BME280;25231;48.746;9.234;2023-03-14T05:28:54;94843.84;;;8.02;100.00
39555;BME280;25231;48.746;9.234;2023-03-14T05:31:20;94839.66;;;8.06;100.00
39555;BME280;25231;48.746;9.234;2023-03-14T05:33:46;94837.84;;;8.01;100.00
39555;BME280;25231;48.746;9.234;2023-03-14T05:36:11;94842.53;;;7.99;100.00
39555;BME280;25231;48.746;9.234;2023-03-14T05:38:37;94838.63;;;8.07;100.00
39555;BME280;25231;48.746;9.234;2023-03-14T05:41:02;94834.72;;;8.09;100.00
39555;BME280;25231;48.746;9.234;2023-03-14T05:43:28;94831.84;;;8.16;100.00
39555;BME280;25231;48.746;9.234;2023-03-14T05:45:54;94826.63;;;8.26;100.00
39555;BME280;25231;48.746;9.234;2023-03-14T05:48:19;94826.66;;;8.31;100.00
39555;BME280;25231;48.746;9.234;2023-03-14T05:50:44;94817.78;;;8.27;100.00
39555;BME280;25231;48.746;9.234;2023-03-14T05:53:10;94824.81;;;8.26;100.00
39555;BME280;25231;48.746;9.234;2023-03-14T05:55:35;94810.47;;;8.24;100.00
39555;BME280;25231;48.746;9.234;2023-03-14T05:58:01;94804.97;;;8.20;100.00
39555;BME280;25231;48.746;9.234;2023-03-14T06:00:26;94804.97;;;8.25;100.00
39555;BME280;25231;48.746;9.234;2023-03-14T06:02:51;94814.91;;;8.23;100.00
39555;BME280;25231;48.746;9.234;2023-03-14T06:05:17;94813.63;;;8.31;100.00
39555;BME280;25231;48.746;9.234;2023-03-14T06:07:43;94815.47;;;8.36;100.00
39555;BME280;25231;48.746;9.234;2023-03-14T06:10:08;94815.16;;;8.22;100.00
39555;BME280;25231;48.746;9.234;2023-03-14T06:12:34;94820.63;;;8.25;100.00
39555;BME280;25231;48.746;9.234;2023-03-14T06:14:59;94828.22;;;8.27;100.00
39555;BME280;25231;48.746;9.234;2023-03-14T06:17:25;94811.22;;;8.19;100.00
39555;BME280;25231;48.746;9.234;2023-03-14T06:19:50;94805.75;;;8.26;100.00
39555;BME280;25231;48.746;9.234;2023-03-14T06:22:16;94807.88;;;8.29;100.00
39555;BME280;25231;48.746;9.234;2023-03-14T06:24:41;94825.59;;;8.27;100.00
39555;BME280;25231;48.746;9.234;2023-03-14T06:27:07;94812.34;;;8.33;100.00
39555;BME280;25231;48.746;9.234;2023-03-14T06:29:32;94815.97;;;8.38;100.00
39555;BME280;25231;48.746;9.234;2023-03-14T06:31:57;94815.19;;;8.32;100.00
39555;BME280;25231;48.746;9.234;2023-03-14T06:34:23;94830.03;;;8.26;100.00
39555;BME280;25231;48.746;9.234;2023-03-14T06:36:48;94817.81;;;8.32;100.00
39555;BME280;25231;48.746;9.234;2023-03-14T06:39:13;94825.88;;;8.30;100.00
39555;BME280;25231;48.746;9.234;2023-03-14T06:41:39;94813.13;;;8.34;100.00
39555;BME280;25231;48.746;9.234;2023-03-14T06:44:04;94811.53;;;8.38;100.00
39555;BME280;25231;48.746;9.234;2023-03-14T06:46:30;94818.34;;;8.44;100.00
39555;BME280;25231;48.746;9.234;2023-03-14T06:48:56;94814.16;;;8.48;100.00
39555;BME280;25231;48.746;9.234;2023-03-14T06:51:21;94807.09;;;8.59;100.00
39555;BME280;25231;48.746;9.234;2023-03-14T06:53:47;94811.56;;;8.63;100.00
39555;BME280;25231;48.746;9.234;2023-03-14T06:56:12;94807.38;;;8.57;100.00
39555;BME280;25231;48.746;9.234;2023-03-14T06:58:38;94810.47;;;8.69;100.00
39555;BME280;25231;48.746;9.234;2023-03-14T07:01:03;94820.41;;;8.77;100.00
39555;BME280;25231;48.746;9.234;2023-03-14T07:03:29;94820.63;;;9.11;100.00
39555;BME280;25231;48.746;9.234;2023-03-14T07:05:54;94821.34;;;9.27;100.00
39555;BME280;25231;48.746;9.234;2023-03-14T07:08:20;94814.31;;;9.23;100.00
39555;BME280;25231;48.746;9.234;2023-03-14T07:10:46;94814.63;;;9.06;100.00
39555;BME280;25231;48.746;9.234;2023-03-14T07:13:11;94827.13;;;9.14;100.00
39555;BME280;25231;48.746;9.234;2023-03-14T07:15:36;94817.75;;;9.08;100.00
39555;BME280;25231;48.746;9.234;2023-03-14T07:18:02;94824.44;;;9.39;100.00
39555;BME280;25231;48.746;9.234;2023-03-14T07:20:28;94830.38;;;9.60;100.00
39555;BME280;25231;48.746;9.234;2023-03-14T07:22:54;94830.19;;;9.41;100.00
39555;BME280;25231;48.746;9.234;2023-03-14T07:27:46;94826.63;;;9.81;100.00
39555;BME280;25231;48.746;9.234;2023-03-14T07:30:13;94825.41;;;10.18;100.00
39555;BME280;25231;48.746;9.234;2023-03-14T07:32:39;94822.16;;;10.36;100.00
39555;BME280;25231;48.746;9.234;2023-03-14T07:35:05;94817.31;;;10.48;100.00
39555;BME280;25231;48.746;9.234;2023-03-14T07:37:30;94836.28;;;10.35;100.00
39555;BME280;25231;48.746;9.234;2023-03-14T07:39:56;94832.13;;;11.20;100.00
39555;BME280;25231;48.746;9.234;2023-03-14T07:42:21;94831.75;;;11.32;100.00
39555;BME280;25231;48.746;9.234;2023-03-14T07:44:47;94842.06;;;11.23;97.04
39555;BME280;25231;48.746;9.234;2023-03-14T07:47:12;94826.13;;;11.20;97.36
39555;BME280;25231;48.746;9.234;2023-03-14T07:49:37;94829.78;;;10.95;95.80
39555;BME280;25231;48.746;9.234;2023-03-14T07:52:03;94842.41;;;11.17;96.06
39555;BME280;25231;48.746;9.234;2023-03-14T07:54:28;94829.06;;;11.13;94.99
39555;BME280;25231;48.746;9.234;2023-03-14T07:56:54;94834.72;;;11.25;92.50
39555;BME280;25231;48.746;9.234;2023-03-14T07:59:19;94830.84;;;11.18;91.46
39555;BME280;25231;48.746;9.234;2023-03-14T08:01:45;94831.19;;;11.11;91.13
39555;BME280;25231;48.746;9.234;2023-03-14T08:04:11;94834.53;;;10.88;92.10
39555;BME280;25231;48.746;9.234;2023-03-14T08:06:36;94836.75;;;10.76;91.98
39555;BME280;25231;48.746;9.234;2023-03-14T08:09:03;94826.16;;;10.91;91.25
39555;BME280;25231;48.746;9.234;2023-03-14T08:11:29;94836.22;;;11.08;89.88
39555;BME280;25231;48.746;9.234;2023-03-14T08:13:55;94832.56;;;11.04;89.41
39555;BME280;25231;48.746;9.234;2023-03-14T08:16:21;94824.69;;;11.04;89.88
39555;BME280;25231;48.746;9.234;2023-03-14T08:18:46;94822.69;;;10.96;90.32
39555;BME280;25231;48.746;9.234;2023-03-14T08:21:12;94834.41;;;11.03;90.05
39555;BME280;25231;48.746;9.234;2023-03-14T08:23:38;94841.72;;;11.06;89.55
39555;BME280;25231;48.746;9.234;2023-03-14T08:26:04;94827.47;;;10.89;89.94
39555;BME280;25231;48.746;9.234;2023-03-14T08:28:29;94828.03;;;10.86;89.87
39555;BME280;25231;48.746;9.234;2023-03-14T08:30:57;94825.84;;;10.93;89.64
39555;BME280;25231;48.746;9.234;2023-03-14T08:33:23;94833.72;;;10.93;89.52
39555;BME280;25231;48.746;9.234;2023-03-14T08:35:52;94826.25;;;11.05;89.02
39555;BME280;25231;48.746;9.234;2023-03-14T08:38:18;94826.09;;;10.96;88.92
39555;BME280;25231;48.746;9.234;2023-03-14T08:40:43;94818.75;;;11.46;87.16
39555;BME280;25231;48.746;9.234;2023-03-14T08:43:09;94822.53;;;11.82;84.37
39555;BME280;25231;48.746;9.234;2023-03-14T08:45:34;94798.72;;;11.97;80.62
39555;BME280;25231;48.746;9.234;2023-03-14T08:47:59;94822.34;;;11.97;77.74
39555;BME280;25231;48.746;9.234;2023-03-14T08:50:25;94821.75;;;11.82;79.11
39555;BME280;25231;48.746;9.234;2023-03-14T08:52:51;94816.00;;;11.80;79.56
39555;BME280;25231;48.746;9.234;2023-03-14T08:55:16;94819.44;;;11.80;78.94
39555;BME280;25231;48.746;9.234;2023-03-14T08:57:42;94821.56;;;11.97;79.15
39555;BME280;25231;48.746;9.234;2023-03-14T09:00:08;94816.00;;;11.98;78.78
39555;BME280;25231;48.746;9.234;2023-03-14T09:02:39;94832.91;;;12.11;79.84
39555;BME280;25231;48.746;9.234;2023-03-14T09:05:05;94838.72;;;11.89;79.07
39555;BME280;25231;48.746;9.234;2023-03-14T09:07:31;94861.38;;;12.04;79.16
39555;BME280;25231;48.746;9.234;2023-03-14T09:09:56;94851.50;;;12.33;80.04
39555;BME280;25231;48.746;9.234;2023-03-14T09:12:22;94864.16;;;12.31;81.28
39555;BME280;25231;48.746;9.234;2023-03-14T09:14:47;94865.88;;;12.03;82.80
39555;BME280;25231;48.746;9.234;2023-03-14T09:17:12;94865.13;;;11.50;86.36
39555;BME280;25231;48.746;9.234;2023-03-14T09:19:38;94860.66;;;11.51;87.57
39555;BME280;25231;48.746;9.234;2023-03-14T09:22:03;94871.94;;;11.51;88.84
39555;BME280;25231;48.746;9.234;2023-03-14T09:24:29;94867.31;;;11.43;90.54
39555;BME280;25231;48.746;9.234;2023-03-14T09:26:55;94870.28;;;11.37;90.74
39555;BME280;25231;48.746;9.234;2023-03-14T09:29:21;94877.13;;;11.33;92.54
39555;BME280;25231;48.746;9.234;2023-03-14T09:31:47;94885.75;;;11.62;90.88
39555;BME280;25231;48.746;9.234;2023-03-14T09:34:12;94884.75;;;11.82;89.16
39555;BME280;25231;48.746;9.234;2023-03-14T09:36:38;94888.63;;;12.08;87.94
39555;BME280;25231;48.746;9.234;2023-03-14T09:39:05;94887.78;;;12.13;85.60
39555;BME280;25231;48.746;9.234;2023-03-14T09:41:37;94909.47;;;11.99;83.75
39555;BME280;25231;48.746;9.234;2023-03-14T09:46:38;94898.69;;;12.01;83.31
39555;BME280;25231;48.746;9.234;2023-03-14T09:49:10;94899.88;;;12.14;82.69
39555;BME280;25231;48.746;9.234;2023-03-14T09:51:37;94915.63;;;12.32;80.92
39555;BME280;25231;48.746;9.234;2023-03-14T09:54:03;94901.50;;;12.28;81.20
39555;BME280;25231;48.746;9.234;2023-03-14T09:56:32;94904.06;;;12.52;79.66
39555;BME280;25231;48.746;9.234;2023-03-14T09:59:00;94900.38;;;12.53;78.98
39555;BME280;25231;48.746;9.234;2023-03-14T10:01:29;94906.25;;;12.45;79.85
39555;BME280;25231;48.746;9.234;2023-03-14T10:03:57;94907.25;;;12.49;79.03
39555;BME280;25231;48.746;9.234;2023-03-14T10:06:28;94900.59;;;12.57;79.02
39555;BME280;25231;48.746;9.234;2023-03-14T10:08:54;94902.63;;;12.22;79.16
39555;BME280;25231;48.746;9.234;2023-03-14T10:11:22;94902.50;;;12.32;79.70
39555;BME280;25231;48.746;9.234;2023-03-14T10:14:08;94889.59;;;12.36;79.55
39555;BME280;25231;48.746;9.234;2023-03-14T10:16:40;94893.72;;;12.42;79.57
39555;BME280;25231;48.746;9.234;2023-03-14T10:19:10;94884.03;;;12.19;80.70
39555;BME280;25231;48.746;9.234;2023-03-14T10:21:39;94884.31;;;12.17;80.24
39555;BME280;25231;48.746;9.234;2023-03-14T10:24:29;94882.66;;;12.21;82.02
39555;BME280;25231;48.746;9.234;2023-03-14T10:27:01;94869.00;;;12.24;81.13
39555;BME280;25231;48.746;9.234;2023-03-14T10:29:29;94872.81;;;12.32;81.30
39555;BME280;25231;48.746;9.234;2023-03-14T10:34:37;94862.56;;;12.86;78.07
39555;BME280;25231;48.746;9.234;2023-03-14T10:37:15;94874.75;;;12.96;76.39
39555;BME280;25231;48.746;9.234;2023-03-14T10:39:51;94875.09;;;12.89;76.15
39555;BME280;25231;48.746;9.234;2023-03-14T10:42:30;94876.41;;;12.92;75.21
39555;BME280;25231;48.746;9.234;2023-03-14T10:45:02;94868.88;;;12.85;74.58
39555;BME280;25231;48.746;9.234;2023-03-14T10:47:29;94880.56;;;13.12;75.11
39555;BME280;25231;48.746;9.234;2023-03-14T10:49:56;94875.53;;;12.97;73.61
39555;BME280;25231;48.746;9.234;2023-03-14T10:52:28;94882.13;;;12.94;73.07
39555;BME280;25231;48.746;9.234;2023-03-14T10:55:11;94881.56;;;12.97;73.50
39555;BME280;25231;48.746;9.234;2023-03-14T10:57:43;94896.47;;;12.69;75.52
39555;BME280;25231;48.746;9.234;2023-03-14T11:00:17;94890.19;;;12.65;78.92
39555;BME280;25231;48.746;9.234;2023-03-14T11:05:25;94889.69;;;12.07;84.66
39555;BME280;25231;48.746;9.234;2023-03-14T11:08:01;94895.03;;;12.21;86.21
39555;BME280;25231;48.746;9.234;2023-03-14T11:10:36;94886.97;;;11.93;85.69
39555;BME280;25231;48.746;9.234;2023-03-14T11:19:03;94896.13;;;11.72;84.01
39555;BME280;25231;48.746;9.234;2023-03-14T11:26:55;94920.44;;;11.54;86.92
39555;BME280;25231;48.746;9.234;2023-03-14T11:31:58;94915.56;;;11.18;91.14
39555;BME280;25231;48.746;9.234;2023-03-14T11:34:39;94907.78;;;11.08;92.00
39555;BME280;25231;48.746;9.234;2023-03-14T11:37:19;94922.69;;;11.13;95.17
39555;BME280;25231;48.746;9.234;2023-03-14T11:40:04;94914.34;;;11.06;95.93
39555;BME280;25231;48.746;9.234;2023-03-14T11:42:32;94923.88;;;11.25;94.88
39555;BME280;25231;48.746;9.234;2023-03-14T11:44:59;94922.44;;;11.38;92.97
39555;BME280;25231;48.746;9.234;2023-03-14T11:47:30;94928.41;;;11.44;94.79
39555;BME280;25231;48.746;9.234;2023-03-14T11:52:35;94939.22;;;11.37;98.19
39555;BME280;25231;48.746;9.234;2023-03-14T11:55:26;94950.38;;;11.53;99.09
39555;BME280;25231;48.746;9.234;2023-03-14T11:57:56;94954.69;;;11.39;98.62
39555;BME280;25231;48.746;9.234;2023-03-14T12:00:24;94951.19;;;11.48;99.85
39555;BME280;25231;48.746;9.234;2023-03-14T12:08:50;94966.19;;;11.48;96.53
39555;BME280;25231;48.746;9.234;2023-03-14T12:11:30;94983.03;;;11.42;95.92
39555;BME280;25231;48.746;9.234;2023-03-14T12:13:57;94980.47;;;11.60;95.31
39555;BME280;25231;48.746;9.234;2023-03-14T12:18:47;94987.44;;;11.46;98.50
39555;BME280;25231;48.746;9.234;2023-03-14T12:21:13;95003.50;;;11.40;98.87
39555;BME280;25231;48.746;9.234;2023-03-14T12:23:56;94991.47;;;11.00;98.87
39555;BME280;25231;48.746;9.234;2023-03-14T12:26:50;95013.41;;;11.14;98.48
39555;BME280;25231;48.746;9.234;2023-03-14T12:29:16;95027.66;;;11.32;95.47
39555;BME280;25231;48.746;9.234;2023-03-14T12:31:46;95042.25;;;11.48;89.56
39555;BME280;25231;48.746;9.234;2023-03-14T12:42:13;95070.69;;;10.92;79.61
39555;BME280;25231;48.746;9.234;2023-03-14T12:44:44;95065.91;;;10.99;79.85
39555;BME280;25231;48.746;9.234;2023-03-14T12:49:46;95095.41;;;10.65;81.22
39555;BME280;25231;48.746;9.234;2023-03-14T12:54:43;95111.25;;;10.20;73.30
39555;BME280;25231;48.746;9.234;2023-03-14T12:57:28;95111.00;;;10.21;72.65
39555;BME280;25231;48.746;9.234;2023-03-14T12:59:59;95138.75;;;10.22;73.19
39555;BME280;25231;48.746;9.234;2023-03-14T13:02:41;95140.84;;;10.00;67.71
39555;BME280;25231;48.746;9.234;2023-03-14T13:05:24;95156.56;;;9.95;66.70
39555;BME280;25231;48.746;9.234;2023-03-14T13:10:38;95174.59;;;9.76;65.52
39555;BME280;25231;48.746;9.234;2023-03-14T13:13:25;95189.00;;;9.99;65.44
39555;BME280;25231;48.746;9.234;2023-03-14T13:16:00;95196.31;;;9.77;65.34
39555;BME280;25231;48.746;9.234;2023-03-14T13:18:36;95194.97;;;9.64;63.11
39555;BME280;25231;48.746;9.234;2023-03-14T13:23:39;95218.72;;;9.37;57.76
39555;BME280;25231;48.746;9.234;2023-03-14T13:26:14;95198.00;;;9.21;57.82
39555;BME280;25231;48.746;9.234;2023-03-14T13:28:42;95233.41;;;9.53;58.33
39555;BME280;25231;48.746;9.234;2023-03-14T13:31:20;95247.75;;;9.36;57.44
39555;BME280;25231;48.746;9.234;2023-03-14T13:33:46;95264.50;;;9.40;57.99
39555;BME280;25231;48.746;9.234;2023-03-14T13:36:12;95272.53;;;9.23;57.72
39555;BME280;25231;48.746;9.234;2023-03-14T13:38:37;95288.22;;;9.23;57.36
39555;BME280;25231;48.746;9.234;2023-03-14T13:41:07;95292.28;;;8.99;57.96
39555;BME280;25231;48.746;9.234;2023-03-14T13:43:36;95336.84;;;9.19;58.00
39555;BME280;25231;48.746;9.234;2023-03-14T13:46:04;95326.31;;;9.14;57.89
39555;BME280;25231;48.746;9.234;2023-03-14T13:48:33;95336.66;;;9.36;58.04
39555;BME280;25231;48.746;9.234;2023-03-14T13:51:03;95333.50;;;9.34;57.42
39555;BME280;25231;48.746;9.234;2023-03-14T13:53:30;95337.69;;;9.35;57.30
39555;BME280;25231;48.746;9.234;2023-03-14T13:55:56;95354.88;;;9.26;57.62
39555;BME280;25231;48.746;9.234;2023-03-14T13:58:32;95367.81;;;9.47;56.63
39555;BME280;25231;48.746;9.234;2023-03-14T14:01:04;95355.31;;;9.54;56.15